createdAt,value
2019-04-06T00:00:59.258Z,1000.12
2019-04-06T00:01:59.256Z,1000.13
2019-04-06T00:02:59.244Z,1000.09
2019-04-06T00:03:59.237Z,1000.11
2019-04-06T00:04:59.206Z,1000.15
2019-04-06T00:05:59.201Z,1000.14
2019-04-06T00:06:59.207Z,1000.14
2019-04-06T00:07:59.190Z,1000.14
2019-04-06T00:08:59.175Z,1000.15
2019-04-06T00:09:59.201Z,1000.11
2019-04-06T00:10:59.143Z,1000.12
2019-04-06T00:11:59.175Z,1000.06
2019-04-06T00:12:59.128Z,1000.04
2019-04-06T00:13:59.117Z,1000.02
2019-04-06T00:14:59.102Z,1000.07
2019-04-06T00:15:59.100Z,1000.09
2019-04-06T00:16:59.088Z,1000.13
2019-04-06T00:17:59.088Z,1000.07
2019-04-06T00:18:59.069Z,1000.16
2019-04-06T00:19:59.062Z,1000.09
2019-04-06T00:20:59.032Z,1000.16
2019-04-06T00:21:59.020Z,1000.11
2019-04-06T00:22:59.036Z,1000.11
2019-04-06T00:23:59.041Z,1000.10
2019-04-06T00:24:58.990Z,1000.16
2019-04-06T00:25:58.996Z,1000.17
2019-04-06T00:26:58.974Z,1000.18
2019-04-06T00:27:58.983Z,1000.16
2019-04-06T00:28:59.027Z,1000.16
2019-04-06T00:29:58.941Z,1000.14
2019-04-06T00:30:58.919Z,1000.17
2019-04-06T00:31:58.919Z,1000.13
2019-04-06T00:32:58.910Z,1000.14
2019-04-06T00:33:58.932Z,1000.19
2019-04-06T00:34:58.889Z,1000.18
2019-04-06T00:35:58.878Z,1000.19
2019-04-06T00:36:58.857Z,1000.20
2019-04-06T00:37:58.852Z,1000.18
2019-04-06T00:38:58.865Z,1000.26
2019-04-06T00:39:58.822Z,1000.23
2019-04-06T00:40:58.823Z,1000.25
2019-04-06T00:41:58.818Z,1000.23
2019-04-06T00:42:58.824Z,1000.23
2019-04-06T00:43:58.797Z,1000.22
2019-04-06T00:44:58.784Z,1000.20
2019-04-06T00:45:58.763Z,1000.25
2019-04-06T00:46:58.757Z,1000.25
2019-04-06T00:47:58.752Z,1000.28
2019-04-06T00:48:58.726Z,1000.24
2019-04-06T00:49:58.752Z,1000.26
2019-04-06T00:50:58.700Z,1000.31
2019-04-06T00:51:58.695Z,1000.29
2019-04-06T00:52:58.690Z,1000.29
2019-04-06T00:53:58.675Z,1000.29
2019-04-06T00:54:58.676Z,1000.26
2019-04-06T00:55:58.692Z,1000.33
2019-04-06T00:56:58.636Z,1000.32
2019-04-06T00:57:58.621Z,1000.37
2019-04-06T00:58:58.667Z,1000.31
2019-04-06T00:59:58.618Z,1000.34
2019-04-06T01:00:58.614Z,1000.34
2019-04-06T01:01:58.612Z,1000.34
2019-04-06T01:02:58.573Z,1000.38
2019-04-06T01:03:58.554Z,1000.35
2019-04-06T01:04:58.557Z,1000.37
2019-04-06T01:05:58.548Z,1000.42
2019-04-06T01:06:58.607Z,1000.43
2019-04-06T01:07:58.543Z,1000.40
2019-04-06T01:08:58.501Z,1000.38
2019-04-06T01:09:58.499Z,1000.40
2019-04-06T01:10:58.648Z,1000.42
2019-04-06T01:11:58.479Z,1000.39
2019-04-06T01:12:58.477Z,1000.37
2019-04-06T01:13:58.468Z,1000.42
2019-04-06T01:14:58.446Z,1000.47
2019-04-06T01:15:58.778Z,1000.46
2019-04-06T01:16:58.418Z,1000.50
2019-04-06T01:17:58.403Z,1000.49
2019-04-06T01:18:58.468Z,1000.48
2019-04-06T01:19:58.397Z,1000.49
2019-04-06T01:20:58.370Z,1000.48
2019-04-06T01:21:58.867Z,1000.48
2019-04-06T01:22:58.425Z,1000.52
2019-04-06T01:23:58.337Z,1000.48
2019-04-06T01:24:58.338Z,1000.48
2019-04-06T01:26:06.934Z,1000.48
2019-04-06T01:26:59.364Z,1000.50
2019-04-06T01:27:58.301Z,1000.54
2019-04-06T01:28:58.288Z,1000.55
2019-04-06T01:29:58.277Z,1000.48
2019-04-06T01:30:58.328Z,1000.54
2019-04-06T01:31:58.276Z,1000.55
2019-04-06T01:32:58.249Z,1000.52
2019-04-06T01:33:59.166Z,1000.51
2019-04-06T01:34:58.225Z,1000.55
2019-04-06T01:35:58.208Z,1000.57
2019-04-06T01:36:58.242Z,1000.56
2019-04-06T01:37:58.213Z,1000.58
2019-04-06T01:38:58.249Z,1000.56
2019-04-06T01:39:58.177Z,1000.56
2019-04-06T01:40:58.154Z,1000.52
2019-04-06T01:41:58.143Z,1000.53
2019-04-06T01:42:58.151Z,1000.54
2019-04-06T01:43:58.146Z,1000.60
2019-04-06T01:44:58.122Z,1000.61
2019-04-06T01:45:58.119Z,1000.65
2019-04-06T01:46:58.128Z,1000.64
2019-04-06T01:47:58.108Z,1000.60
2019-04-06T01:48:58.055Z,1000.60
2019-04-06T01:49:58.054Z,1000.60
2019-04-06T01:50:58.044Z,1000.60
2019-04-06T01:51:58.038Z,1000.58
2019-04-06T01:52:58.046Z,1000.65
2019-04-06T01:53:58.019Z,1000.59
2019-04-06T01:54:59.104Z,1000.59
2019-04-06T01:55:57.993Z,1000.57
2019-04-06T01:56:57.993Z,1000.58
2019-04-06T01:57:57.971Z,1000.60
2019-04-06T01:58:57.980Z,1000.58
2019-04-06T01:59:57.944Z,1000.53
2019-04-06T02:00:57.926Z,1000.53
2019-04-06T02:01:58.029Z,1000.53
2019-04-06T02:02:57.916Z,1000.54
2019-04-06T02:03:57.922Z,1000.58
2019-04-06T02:04:57.899Z,1000.53
2019-04-06T02:05:57.951Z,1000.56
2019-04-06T02:06:57.862Z,1000.54
2019-04-06T02:07:57.851Z,1000.55
2019-04-06T02:08:57.953Z,1000.54
2019-04-06T02:09:57.839Z,1000.56
2019-04-06T02:10:57.842Z,1000.54
2019-04-06T02:11:57.818Z,1000.53
2019-04-06T02:12:57.864Z,1000.56
2019-04-06T02:13:57.776Z,1000.59
2019-04-06T02:14:57.792Z,1000.57
2019-04-06T02:15:57.759Z,1000.54
2019-04-06T02:16:57.772Z,1000.57
2019-04-06T02:17:57.747Z,1000.56
2019-04-06T02:18:57.733Z,1000.54
2019-04-06T02:19:57.757Z,1000.56
2019-04-06T02:20:57.704Z,1000.54
2019-04-06T02:21:57.694Z,1000.54
2019-04-06T02:22:57.694Z,1000.59
2019-04-06T02:23:57.711Z,1000.54
2019-04-06T02:24:57.739Z,1000.54
2019-04-06T02:25:57.650Z,1000.56
2019-04-06T02:26:57.644Z,1000.55
2019-04-06T02:27:57.630Z,1000.57
2019-04-06T02:28:57.624Z,1000.59
2019-04-06T02:29:57.642Z,1000.60
2019-04-06T02:30:57.619Z,1000.56
2019-04-06T02:31:57.602Z,1000.61
2019-04-06T02:32:57.573Z,1000.64
2019-04-06T02:33:57.559Z,1000.66
2019-04-06T02:34:57.550Z,1000.71
2019-04-06T02:35:57.641Z,1000.69
2019-04-06T02:36:57.534Z,1000.72
2019-04-06T02:37:57.525Z,1000.70
2019-04-06T02:38:57.514Z,1000.69
2019-04-06T02:39:57.490Z,1000.75
2019-04-06T02:40:57.671Z,1000.73
2019-04-06T02:41:57.615Z,1000.70
2019-04-06T02:42:57.479Z,1000.73
2019-04-06T02:43:57.465Z,1000.71
2019-04-06T02:44:57.461Z,1000.74
2019-04-06T02:45:57.450Z,1000.77
2019-04-06T02:46:57.547Z,1000.72
2019-04-06T02:47:57.407Z,1000.77
2019-04-06T02:48:57.414Z,1000.72
2019-04-06T02:49:57.403Z,1000.75
2019-04-06T02:50:57.491Z,1000.76
2019-04-06T02:51:57.375Z,1000.77
2019-04-06T02:52:57.376Z,1000.79
2019-04-06T02:53:57.347Z,1000.81
2019-04-06T02:54:57.348Z,1000.83
2019-04-06T02:55:57.335Z,1000.80
2019-04-06T02:56:57.327Z,1000.79
2019-04-06T02:57:57.341Z,1000.78
2019-04-06T02:58:57.311Z,1000.73
2019-04-06T02:59:57.279Z,1000.78
2019-04-06T03:00:57.417Z,1000.73
2019-04-06T03:01:57.452Z,1000.75
2019-04-06T03:02:57.252Z,1000.68
2019-04-06T03:03:57.242Z,1000.73
2019-04-06T03:04:57.233Z,1000.75
2019-04-06T03:05:57.232Z,1000.78
2019-04-06T03:06:57.195Z,1000.76
2019-04-06T03:07:57.193Z,1000.75
2019-04-06T03:08:57.184Z,1000.79
2019-04-06T03:09:57.191Z,1000.77
2019-04-06T03:10:57.162Z,1000.78
2019-04-06T03:11:57.278Z,1000.73
2019-04-06T03:12:57.142Z,1000.71
2019-04-06T03:13:57.154Z,1000.70
2019-04-06T03:14:57.121Z,1000.70
2019-04-06T03:15:57.132Z,1000.75
2019-04-06T03:16:57.087Z,1000.79
2019-04-06T03:17:57.083Z,1000.72
2019-04-06T03:18:57.088Z,1000.74
2019-04-06T03:19:57.062Z,1000.75
2019-04-06T03:20:57.057Z,1000.77
2019-04-06T03:21:57.030Z,1000.73
2019-04-06T03:22:57.030Z,1000.69
2019-04-06T03:23:57.054Z,1000.75
2019-04-06T03:24:57.046Z,1000.73
2019-04-06T03:25:56.996Z,1000.66
2019-04-06T03:27:02.258Z,1000.71
2019-04-06T03:27:57.977Z,1000.77
2019-04-06T03:28:56.957Z,1000.78
2019-04-06T03:29:59.028Z,1000.68
2019-04-06T03:30:56.943Z,1000.66
2019-04-06T03:31:57.086Z,1000.68
2019-04-06T03:32:57.114Z,1000.70
2019-04-06T03:33:56.916Z,1000.69
2019-04-06T03:34:56.900Z,1000.65
2019-04-06T03:35:56.908Z,1000.69
2019-04-06T03:36:56.864Z,1000.64
2019-04-06T03:37:56.884Z,1000.66
2019-04-06T03:38:56.884Z,1000.67
2019-04-06T03:39:56.835Z,1000.65
2019-04-06T03:40:56.830Z,1000.66
2019-04-06T03:41:56.847Z,1000.68
2019-04-06T03:42:56.802Z,1000.68
2019-04-06T03:43:56.806Z,1000.65
2019-04-06T03:44:56.784Z,1000.71
2019-04-06T03:45:57.048Z,1000.68
2019-04-06T03:46:56.764Z,1000.66
2019-04-06T03:47:56.958Z,1000.67
2019-04-06T03:48:56.741Z,1000.69
2019-04-06T03:49:56.987Z,1000.73
2019-04-06T03:50:56.713Z,1000.73
2019-04-06T03:51:56.689Z,1000.72
2019-04-06T03:52:56.688Z,1000.73
2019-04-06T03:53:56.747Z,1000.66
2019-04-06T03:54:56.689Z,1000.73
2019-04-06T03:55:56.649Z,1000.67
2019-04-06T03:56:56.679Z,1000.65
2019-04-06T03:57:56.619Z,1000.70
2019-04-06T03:58:56.625Z,1000.65
2019-04-06T03:59:56.804Z,1000.68
2019-04-06T04:00:56.704Z,1000.64
2019-04-06T04:01:56.611Z,1000.70
2019-04-06T04:02:56.567Z,1000.65
2019-04-06T04:03:56.653Z,1000.68
2019-04-06T04:04:56.550Z,1000.69
2019-04-06T04:05:56.552Z,1000.73
2019-04-06T04:06:56.534Z,1000.70
2019-04-06T04:07:56.555Z,1000.71
2019-04-06T04:08:56.506Z,1000.68
2019-04-06T04:09:56.487Z,1000.65
2019-04-06T04:10:56.482Z,1000.66
2019-04-06T04:11:56.462Z,1000.69
2019-04-06T04:12:56.576Z,1000.66
2019-04-06T04:13:56.467Z,1000.66
2019-04-06T04:14:56.426Z,1000.66
2019-04-06T04:15:57.439Z,1000.64
2019-04-06T04:16:56.418Z,1000.68
2019-04-06T04:17:56.407Z,1000.64
2019-04-06T04:18:56.421Z,1000.61
2019-04-06T04:19:56.375Z,1000.57
2019-04-06T04:20:56.373Z,1000.64
2019-04-06T04:21:56.371Z,1000.62
2019-04-06T04:22:56.348Z,1000.58
2019-04-06T04:23:56.373Z,1000.61
2019-04-06T04:24:56.324Z,1000.58
2019-04-06T04:25:56.582Z,1000.59
2019-04-06T04:26:56.378Z,1000.58
2019-04-06T04:27:56.300Z,1000.53
2019-04-06T04:28:56.300Z,1000.60
2019-04-06T04:29:56.275Z,1000.60
2019-04-06T04:30:56.267Z,1000.54
2019-04-06T04:31:56.252Z,1000.51
2019-04-06T04:32:56.241Z,1000.51
2019-04-06T04:33:56.220Z,1000.49
2019-04-06T04:34:56.287Z,1000.51
2019-04-06T04:35:56.196Z,1000.46
2019-04-06T04:36:56.205Z,1000.51
2019-04-06T04:37:56.310Z,1000.49
2019-04-06T04:38:56.169Z,1000.49
2019-04-06T04:39:56.169Z,1000.55
2019-04-06T04:40:56.671Z,1000.51
2019-04-06T04:41:56.135Z,1000.57
2019-04-06T04:42:56.118Z,1000.53
2019-04-06T04:43:56.330Z,1000.51
2019-04-06T04:44:56.123Z,1000.58
2019-04-06T04:45:56.133Z,1000.60
2019-04-06T04:46:56.121Z,1000.63
2019-04-06T04:47:56.068Z,1000.64
2019-04-06T04:48:56.100Z,1000.64
2019-04-06T04:49:56.112Z,1000.67
2019-04-06T04:50:56.038Z,1000.68
2019-04-06T04:51:56.043Z,1000.70
2019-04-06T04:52:56.002Z,1000.74
2019-04-06T04:53:56.002Z,1000.70
2019-04-06T04:54:55.998Z,1000.68
2019-04-06T04:55:55.975Z,1000.69
2019-04-06T04:56:55.998Z,1000.67
2019-04-06T04:57:55.993Z,1000.68
2019-04-06T04:58:55.964Z,1000.69
2019-04-06T04:59:55.942Z,1000.71
2019-04-06T05:00:55.943Z,1000.71
2019-04-06T05:01:55.950Z,1000.77
2019-04-06T05:02:55.909Z,1000.80
2019-04-06T05:03:55.932Z,1000.78
2019-04-06T05:04:55.937Z,1000.76
2019-04-06T05:05:55.892Z,1000.71
2019-04-06T05:06:55.860Z,1000.79
2019-04-06T05:07:55.959Z,1000.77
2019-04-06T05:08:55.861Z,1000.77
2019-04-06T05:09:55.837Z,1000.79
2019-04-06T05:10:55.828Z,1000.77
2019-04-06T05:11:55.885Z,1000.77
2019-04-06T05:12:55.817Z,1000.73
2019-04-06T05:13:55.787Z,1000.76
2019-04-06T05:14:55.787Z,1000.79
2019-04-06T05:15:55.768Z,1000.82
2019-04-06T05:16:55.757Z,1000.81
2019-04-06T05:17:55.930Z,1000.85
2019-04-06T05:18:55.760Z,1000.83
2019-04-06T05:19:55.717Z,1000.86
2019-04-06T05:20:55.717Z,1000.87
2019-04-06T05:21:55.696Z,1000.87
2019-04-06T05:22:55.723Z,1000.91
2019-04-06T05:23:55.673Z,1000.94
2019-04-06T05:24:55.678Z,1000.92
2019-04-06T05:25:55.653Z,1000.97
2019-04-06T05:26:55.823Z,1001.02
2019-04-06T05:27:55.626Z,1000.99
2019-04-06T05:28:55.621Z,1001.00
2019-04-06T05:29:55.645Z,1000.96
2019-04-06T05:30:55.610Z,1000.98
2019-04-06T05:31:55.594Z,1001.00
2019-04-06T05:32:55.562Z,1001.02
2019-04-06T05:33:55.556Z,1001.00
2019-04-06T05:34:57.921Z,1001.01
2019-04-06T05:35:55.555Z,1001.00
2019-04-06T05:36:55.519Z,1000.98
2019-04-06T05:37:55.512Z,1001.01
2019-04-06T05:38:55.505Z,1000.97
2019-04-06T05:39:55.499Z,1000.95
2019-04-06T05:40:55.518Z,1001.01
2019-04-06T05:41:55.484Z,1001.02
2019-04-06T05:42:55.474Z,1001.00
2019-04-06T05:43:55.457Z,1001.01
2019-04-06T05:44:55.440Z,1000.98
2019-04-06T05:45:55.425Z,1000.96
2019-04-06T05:46:55.439Z,1001.05
2019-04-06T05:47:55.406Z,1001.00
2019-04-06T05:48:55.402Z,1001.06
2019-04-06T05:49:55.393Z,1001.04
2019-04-06T05:50:55.401Z,1001.05
2019-04-06T05:51:55.359Z,1001.07
2019-04-06T05:52:55.354Z,1001.04
2019-04-06T05:53:55.350Z,1001.05
2019-04-06T05:54:55.334Z,1001.12
2019-04-06T05:55:55.318Z,1001.10
2019-04-06T05:56:55.324Z,1001.11
2019-04-06T05:58:03.388Z,1001.07
2019-04-06T05:58:56.273Z,1001.12
2019-04-06T05:59:55.300Z,1001.07
2019-04-06T06:00:55.267Z,1001.12
2019-04-06T06:01:55.275Z,1001.16
2019-04-06T06:02:55.272Z,1001.15
2019-04-06T06:03:55.258Z,1001.09
2019-04-06T06:04:55.219Z,1001.09
2019-04-06T06:05:55.217Z,1001.13
2019-04-06T06:06:55.205Z,1001.10
2019-04-06T06:07:55.184Z,1001.11
2019-04-06T06:08:55.205Z,1001.12
2019-04-06T06:09:55.174Z,1001.15
2019-04-06T06:10:55.329Z,1001.19
2019-04-06T06:11:55.911Z,1001.25
2019-04-06T06:12:55.148Z,1001.26
2019-04-06T06:13:55.118Z,1001.18
2019-04-06T06:14:55.281Z,1001.23
2019-04-06T06:15:55.242Z,1001.17
2019-04-06T06:16:55.079Z,1001.20
2019-04-06T06:17:55.073Z,1001.28
2019-04-06T06:18:55.073Z,1001.23
2019-04-06T06:19:55.095Z,1001.21
2019-04-06T06:20:55.045Z,1001.19
2019-04-06T06:21:55.024Z,1001.25
2019-04-06T06:22:55.006Z,1001.27
2019-04-06T06:23:55.015Z,1001.25
2019-04-06T06:24:55.134Z,1001.25
2019-04-06T06:25:54.989Z,1001.23
2019-04-06T06:26:54.982Z,1001.27
2019-04-06T06:27:54.961Z,1001.35
2019-04-06T06:28:54.962Z,1001.30
2019-04-06T06:29:54.962Z,1001.27
2019-04-06T06:30:54.947Z,1001.30
2019-04-06T06:31:54.934Z,1001.34
2019-04-06T06:32:54.913Z,1001.37
2019-04-06T06:33:54.900Z,1001.35
2019-04-06T06:34:55.252Z,1001.35
2019-04-06T06:35:54.886Z,1001.37
2019-04-06T06:36:54.866Z,1001.33
2019-04-06T06:37:54.854Z,1001.35
2019-04-06T06:38:54.847Z,1001.40
2019-04-06T06:39:54.832Z,1001.39
2019-04-06T06:40:54.832Z,1001.32
2019-04-06T06:41:54.818Z,1001.28
2019-04-06T06:42:54.877Z,1001.27
2019-04-06T06:43:54.801Z,1001.33
2019-04-06T06:44:54.776Z,1001.32
2019-04-06T06:45:54.799Z,1001.34
2019-04-06T06:46:54.766Z,1001.34
2019-04-06T06:47:54.739Z,1001.31
2019-04-06T06:48:54.771Z,1001.39
2019-04-06T06:49:54.717Z,1001.41
2019-04-06T06:50:54.707Z,1001.38
2019-04-06T06:51:54.933Z,1001.36
2019-04-06T06:52:54.691Z,1001.41
2019-04-06T06:53:54.697Z,1001.46
2019-04-06T06:54:54.659Z,1001.40
2019-04-06T06:55:54.654Z,1001.45
2019-04-06T06:56:54.678Z,1001.45
2019-04-06T06:57:54.644Z,1001.46
2019-04-06T06:58:54.688Z,1001.48
2019-04-06T06:59:54.609Z,1001.40
2019-04-06T07:00:54.592Z,1001.45
2019-04-06T07:01:54.642Z,1001.47
2019-04-06T07:02:54.598Z,1001.47
2019-04-06T07:03:54.569Z,1001.48
2019-04-06T07:04:54.566Z,1001.50
2019-04-06T07:05:54.583Z,1001.48
2019-04-06T07:06:54.541Z,1001.48
2019-04-06T07:07:54.516Z,1001.52
2019-04-06T07:08:54.505Z,1001.46
2019-04-06T07:10:04.698Z,1001.42
2019-04-06T07:10:55.520Z,1001.51
2019-04-06T07:11:54.471Z,1001.51
2019-04-06T07:12:54.477Z,1001.54
2019-04-06T07:13:54.453Z,1001.46
2019-04-06T07:14:54.446Z,1001.49
2019-04-06T07:15:54.445Z,1001.49
2019-04-06T07:16:54.569Z,1001.59
2019-04-06T07:17:54.437Z,1001.57
2019-04-06T07:18:54.429Z,1001.55
2019-04-06T07:19:54.389Z,1001.55
2019-04-06T07:20:54.376Z,1001.49
2019-04-06T07:21:54.375Z,1001.53
2019-04-06T07:22:54.359Z,1001.56
2019-04-06T07:23:54.421Z,1001.61
2019-04-06T07:24:54.332Z,1001.55
2019-04-06T07:25:58.564Z,1001.59
2019-04-06T07:26:54.309Z,1001.53
2019-04-06T07:27:54.528Z,1001.61
2019-04-06T07:28:54.302Z,1001.63
2019-04-06T07:29:54.327Z,1001.59
2019-04-06T07:30:54.278Z,1001.55
2019-04-06T07:31:54.257Z,1001.59
2019-04-06T07:32:55.420Z,1001.48
2019-04-06T07:33:54.405Z,1001.58
2019-04-06T07:34:54.245Z,1001.63
2019-04-06T07:35:54.226Z,1001.59
2019-04-06T07:36:54.428Z,1001.65
2019-04-06T07:37:54.343Z,1001.67
2019-04-06T07:38:54.198Z,1001.67
2019-04-06T07:39:54.328Z,1001.72
2019-04-06T07:40:54.147Z,1001.65
2019-04-06T07:41:54.165Z,1001.59
2019-04-06T07:42:54.208Z,1001.65
2019-04-06T07:43:54.122Z,1001.67
2019-04-06T07:44:54.354Z,1001.66
2019-04-06T07:45:54.135Z,1001.66
2019-04-06T07:46:54.094Z,1001.63
2019-04-06T07:47:54.100Z,1001.62
2019-04-06T07:48:54.072Z,1001.62
2019-04-06T07:49:54.069Z,1001.67
2019-04-06T07:50:54.061Z,1001.66
2019-04-06T07:51:54.056Z,1001.63
2019-04-06T07:52:54.250Z,1001.56
2019-04-06T07:53:54.019Z,1001.64
2019-04-06T07:54:54.003Z,1001.59
2019-04-06T07:55:54.006Z,1001.67
2019-04-06T07:56:54.019Z,1001.67
2019-04-06T07:57:54.013Z,1001.64
2019-04-06T07:58:53.967Z,1001.66
2019-04-06T07:59:53.955Z,1001.67
2019-04-06T08:00:53.945Z,1001.68
2019-04-06T08:01:54.004Z,1001.63
2019-04-06T08:02:53.949Z,1001.66
2019-04-06T08:03:53.914Z,1001.71
2019-04-06T08:04:53.890Z,1001.69
2019-04-06T08:05:53.906Z,1001.61
2019-04-06T08:06:53.912Z,1001.57
2019-04-06T08:07:54.053Z,1001.57
2019-04-06T08:08:53.864Z,1001.59
2019-04-06T08:09:53.838Z,1001.55
2019-04-06T08:10:53.836Z,1001.59
2019-04-06T08:11:53.819Z,1001.59
2019-04-06T08:12:53.850Z,1001.54
2019-04-06T08:13:53.896Z,1001.55
2019-04-06T08:14:53.790Z,1001.55
2019-04-06T08:15:53.789Z,1001.57
2019-04-06T08:16:53.774Z,1001.55
2019-04-06T08:17:53.798Z,1001.59
2019-04-06T08:18:53.755Z,1001.54
2019-04-06T08:19:53.733Z,1001.56
2019-04-06T08:20:53.727Z,1001.50
2019-04-06T08:21:53.727Z,1001.48
2019-04-06T08:22:53.711Z,1001.49
2019-04-06T08:23:53.733Z,1001.50
2019-04-06T08:24:53.719Z,1001.45
2019-04-06T08:25:53.688Z,1001.47
2019-04-06T08:26:53.670Z,1001.41
2019-04-06T08:27:53.864Z,1001.49
2019-04-06T08:29:00.276Z,1001.58
2019-04-06T08:29:54.654Z,1001.54
2019-04-06T08:30:54.188Z,1001.58
2019-04-06T08:31:53.601Z,1001.59
2019-04-06T08:32:53.609Z,1001.61
2019-04-06T08:33:53.884Z,1001.55
2019-04-06T08:34:53.569Z,1001.56
2019-04-06T08:35:53.573Z,1001.57
2019-04-06T08:36:53.571Z,1001.55
2019-04-06T08:37:53.547Z,1001.59
2019-04-06T08:38:53.748Z,1001.59
2019-04-06T08:39:53.641Z,1001.60
2019-04-06T08:40:53.500Z,1001.55
2019-04-06T08:41:53.493Z,1001.57
2019-04-06T08:42:53.488Z,1001.57
2019-04-06T08:43:53.482Z,1001.61
2019-04-06T08:44:53.494Z,1001.57
2019-04-06T08:45:53.486Z,1001.50
2019-04-06T08:46:53.454Z,1001.53
2019-04-06T08:47:53.440Z,1001.52
2019-04-06T08:48:53.507Z,1001.50
2019-04-06T08:49:53.431Z,1001.51
2019-04-06T08:50:53.432Z,1001.49
2019-04-06T08:51:53.393Z,1001.53
2019-04-06T08:52:53.378Z,1001.54
2019-04-06T08:53:53.368Z,1001.51
2019-04-06T08:54:53.354Z,1001.51
2019-04-06T08:55:53.378Z,1001.49
2019-04-06T08:56:53.349Z,1001.52
2019-04-06T08:57:53.399Z,1001.51
2019-04-06T08:58:53.352Z,1001.53
2019-04-06T08:59:53.427Z,1001.47
2019-04-06T09:00:53.310Z,1001.45
2019-04-06T09:01:53.291Z,1001.54
2019-04-06T09:02:53.279Z,1001.51
2019-04-06T09:03:53.269Z,1001.52
2019-04-06T09:04:53.284Z,1001.57
2019-04-06T09:05:53.443Z,1001.49
2019-04-06T09:06:53.244Z,1001.52
2019-04-06T09:07:53.450Z,1001.54
2019-04-06T09:08:53.220Z,1001.55
2019-04-06T09:09:53.220Z,1001.54
2019-04-06T09:10:53.235Z,1001.58
2019-04-06T09:11:53.182Z,1001.54
2019-04-06T09:12:53.397Z,1001.52
2019-04-06T09:13:53.159Z,1001.56
2019-04-06T09:14:53.550Z,1001.51
2019-04-06T09:15:53.183Z,1001.51
2019-04-06T09:16:53.251Z,1001.57
2019-04-06T09:17:53.111Z,1001.51
2019-04-06T09:18:53.108Z,1001.49
2019-04-06T09:19:53.113Z,1001.51
2019-04-06T09:20:53.147Z,1001.48
2019-04-06T09:21:53.091Z,1001.45
2019-04-06T09:22:53.078Z,1001.47
2019-04-06T09:23:53.065Z,1001.48
2019-04-06T09:24:53.056Z,1001.47
2019-04-06T09:25:53.069Z,1001.45
2019-04-06T09:26:53.052Z,1001.41
2019-04-06T09:27:53.025Z,1001.39
2019-04-06T09:28:53.015Z,1001.42
2019-04-06T09:29:53.076Z,1001.39
2019-04-06T09:30:53.030Z,1001.47
2019-04-06T09:31:52.979Z,1001.36
2019-04-06T09:32:52.977Z,1001.38
2019-04-06T09:33:53.214Z,1001.44
2019-04-06T09:34:52.972Z,1001.37
2019-04-06T09:35:52.938Z,1001.44
2019-04-06T09:36:52.954Z,1001.42
2019-04-06T09:37:52.923Z,1001.37
2019-04-06T09:38:53.055Z,1001.37
2019-04-06T09:39:52.912Z,1001.34
2019-04-06T09:40:53.007Z,1001.32
2019-04-06T09:41:52.896Z,1001.31
2019-04-06T09:42:52.897Z,1001.33
2019-04-06T09:43:52.870Z,1001.25
2019-04-06T09:44:52.870Z,1001.34
2019-04-06T09:45:52.851Z,1001.36
2019-04-06T09:46:52.824Z,1001.44
2019-04-06T09:47:52.838Z,1001.30
2019-04-06T09:48:52.841Z,1001.27
2019-04-06T09:49:52.790Z,1001.28
2019-04-06T09:50:52.862Z,1001.30
2019-04-06T09:51:52.783Z,1001.29
2019-04-06T09:52:52.800Z,1001.28
2019-04-06T09:54:04.561Z,1001.32
2019-04-06T09:54:53.956Z,1001.26
2019-04-06T09:55:52.789Z,1001.24
2019-04-06T09:56:52.726Z,1001.24
2019-04-06T09:57:52.713Z,1001.24
2019-04-06T09:58:52.732Z,1001.25
2019-04-06T09:59:52.708Z,1001.25
2019-04-06T10:00:52.701Z,1001.27
2019-04-06T10:01:52.688Z,1001.20
2019-04-06T10:02:52.670Z,1001.28
2019-04-06T10:03:52.677Z,1001.20
2019-04-06T10:04:52.652Z,1001.15
2019-04-06T10:05:52.844Z,1001.21
2019-04-06T10:06:52.637Z,1001.21
2019-04-06T10:07:52.617Z,1001.24
2019-04-06T10:08:52.610Z,1001.25
2019-04-06T10:09:52.838Z,1001.16
2019-04-06T10:10:52.587Z,1001.15
2019-04-06T10:11:52.592Z,1001.15
2019-04-06T10:12:52.577Z,1001.15
2019-04-06T10:13:52.589Z,1001.12
2019-04-06T10:14:52.584Z,1001.14
2019-04-06T10:15:52.536Z,1001.13
2019-04-06T10:16:52.523Z,1001.07
2019-04-06T10:17:52.640Z,1001.18
2019-04-06T10:18:52.515Z,1001.08
2019-04-06T10:19:54.432Z,1001.06
2019-04-06T10:20:52.771Z,1001.13
2019-04-06T10:21:52.484Z,1001.08
2019-04-06T10:22:52.472Z,1001.10
2019-04-06T10:23:52.463Z,1001.09
2019-04-06T10:24:52.479Z,1001.06
2019-04-06T10:25:52.447Z,1001.05
2019-04-06T10:26:52.672Z,1001.07
2019-04-06T10:27:52.570Z,1001.10
2019-04-06T10:28:52.416Z,1001.07
2019-04-06T10:29:52.433Z,1001.11
2019-04-06T10:30:53.680Z,1001.03
2019-04-06T10:31:52.388Z,1001.10
2019-04-06T10:32:52.374Z,1001.16
2019-04-06T10:33:52.369Z,1001.09
2019-04-06T10:34:52.399Z,1001.08
2019-04-06T10:35:52.347Z,1001.06
2019-04-06T10:36:52.324Z,1001.11
2019-04-06T10:37:52.331Z,1001.06
2019-04-06T10:38:52.342Z,1001.24
2019-04-06T10:39:52.411Z,1001.12
2019-04-06T10:40:52.322Z,1001.04
2019-04-06T10:41:52.284Z,1001.03
2019-04-06T10:42:52.282Z,1001.03
2019-04-06T10:43:52.505Z,1001.03
2019-04-06T10:44:52.258Z,1001.07
2019-04-06T10:45:52.276Z,1001.12
2019-04-06T10:46:52.240Z,1001.10
2019-04-06T10:47:52.242Z,1001.09
2019-04-06T10:48:52.226Z,1001.06
2019-04-06T10:49:52.492Z,1001.00
2019-04-06T10:50:52.228Z,1001.03
2019-04-06T10:51:52.200Z,1001.04
2019-04-06T10:52:52.180Z,1001.10
2019-04-06T10:53:52.170Z,1001.06
2019-04-06T10:54:52.353Z,1001.06
2019-04-06T10:55:52.159Z,1001.06
2019-04-06T10:56:52.240Z,1001.03
2019-04-06T10:57:52.139Z,1001.02
2019-04-06T10:58:52.117Z,1001.08
2019-04-06T11:00:00.959Z,1000.95
2019-04-06T11:00:53.693Z,1001.01
2019-04-06T11:01:52.108Z,1000.98
2019-04-06T11:02:52.102Z,1001.02
2019-04-06T11:03:52.069Z,1001.00
2019-04-06T11:04:52.062Z,1001.06
2019-04-06T11:05:52.159Z,1001.12
2019-04-06T11:06:52.137Z,1001.01
2019-04-06T11:07:52.027Z,1001.01
2019-04-06T11:08:52.009Z,1000.99
2019-04-06T11:09:52.008Z,1001.03
2019-04-06T11:10:52.035Z,1001.07
2019-04-06T11:11:52.011Z,1001.10
2019-04-06T11:12:51.970Z,1001.17
2019-04-06T11:13:51.963Z,1001.13
2019-04-06T11:14:51.955Z,1001.19
2019-04-06T11:15:51.958Z,1001.16
2019-04-06T11:16:51.944Z,1001.18
2019-04-06T11:17:51.953Z,1001.32
2019-04-06T11:18:51.949Z,1001.11
2019-04-06T11:19:51.898Z,1001.18
2019-04-06T11:20:51.899Z,1001.09
2019-04-06T11:21:51.880Z,1001.17
2019-04-06T11:22:51.900Z,1001.25
2019-04-06T11:23:51.872Z,1001.11
2019-04-06T11:24:51.854Z,1001.17
2019-04-06T11:25:51.842Z,1001.13
2019-04-06T11:26:52.142Z,1001.11
2019-04-06T11:27:51.957Z,1001.04
2019-04-06T11:28:51.863Z,1001.13
2019-04-06T11:29:51.811Z,1001.08
2019-04-06T11:30:51.799Z,1001.04
2019-04-06T11:31:51.779Z,1001.01
2019-04-06T11:32:51.789Z,1001.16
2019-04-06T11:33:51.775Z,1001.02
2019-04-06T11:34:52.048Z,1001.09
2019-04-06T11:35:51.755Z,1001.07
2019-04-06T11:36:51.738Z,1001.06
2019-04-06T11:37:51.764Z,1001.05
2019-04-06T11:38:51.726Z,1001.12
2019-04-06T11:39:51.764Z,1001.01
2019-04-06T11:40:51.973Z,1001.08
2019-04-06T11:41:54.420Z,1001.01
2019-04-06T11:42:51.675Z,1001.02
2019-04-06T11:43:51.689Z,1000.97
2019-04-06T11:44:51.746Z,1001.08
2019-04-06T11:45:51.930Z,1001.00
2019-04-06T11:46:51.628Z,1000.99
2019-04-06T11:47:51.627Z,1001.01
2019-04-06T11:48:51.861Z,1001.07
2019-04-06T11:49:51.621Z,1000.91
2019-04-06T11:50:51.597Z,1000.99
2019-04-06T11:51:51.684Z,1000.98
2019-04-06T11:52:51.577Z,1001.00
2019-04-06T11:53:51.558Z,1001.00
2019-04-06T11:54:51.569Z,1000.98
2019-04-06T11:55:51.548Z,1000.99
2019-04-06T11:56:51.538Z,1000.97
2019-04-06T11:57:51.521Z,1000.95
2019-04-06T11:58:51.534Z,1000.98
2019-04-06T11:59:51.550Z,1001.04
2019-04-06T12:00:51.554Z,1000.96
2019-04-06T12:01:51.520Z,1000.93
2019-04-06T12:02:51.501Z,1000.93
2019-04-06T12:03:51.486Z,1001.00
2019-04-06T12:04:51.502Z,1000.90
2019-04-06T12:05:51.495Z,1000.83